createdAt,value
2023-03-28T00:00:34.292Z,99.99
2023-03-28T00:01:34.284Z,99.99
2023-03-28T00:02:34.312Z,99.99
2023-03-28T00:03:34.315Z,99.99
2023-03-28T00:04:34.276Z,99.99
2023-03-28T00:05:34.310Z,99.99
2023-03-28T00:06:34.267Z,99.99
2023-03-28T00:07:34.263Z,99.99
2023-03-28T00:08:34.269Z,99.99
2023-03-28T00:09:34.260Z,99.99
2023-03-28T00:10:34.254Z,99.99
2023-03-28T00:11:34.246Z,99.99
2023-03-28T00:12:34.246Z,99.99
2023-03-28T00:13:34.240Z,99.99
2023-03-28T00:14:34.252Z,99.99
2023-03-28T00:15:34.255Z,99.99
2023-03-28T00:16:34.275Z,99.99
2023-03-28T00:17:34.240Z,99.99
2023-03-28T00:18:34.212Z,99.99
2023-03-28T00:19:34.207Z,99.99
2023-03-28T00:20:34.199Z,99.99
2023-03-28T00:21:34.200Z,99.99
2023-03-28T00:22:34.193Z,99.99
2023-03-28T00:23:34.188Z,99.99
2023-03-28T00:24:34.181Z,99.99
2023-03-28T00:25:34.185Z,99.99
2023-03-28T00:26:34.174Z,99.99
2023-03-28T00:27:34.163Z,99.99
2023-03-28T00:28:34.159Z,99.99
2023-03-28T00:29:34.153Z,99.99
2023-03-28T00:30:34.179Z,99.99
2023-03-28T00:31:34.172Z,99.99
2023-03-28T00:32:34.156Z,99.99
2023-03-28T00:33:34.144Z,99.99
2023-03-28T00:34:34.136Z,99.99
2023-03-28T00:35:34.134Z,99.99
2023-03-28T00:36:34.123Z,99.99
2023-03-28T00:37:34.460Z,99.99
2023-03-28T00:38:34.118Z,99.99
2023-03-28T00:39:34.102Z,99.99
2023-03-28T00:40:34.106Z,99.99
2023-03-28T00:41:34.095Z,99.99
2023-03-28T00:42:34.109Z,99.99
2023-03-28T00:43:34.085Z,99.99
2023-03-28T00:44:34.086Z,99.99
2023-03-28T00:45:34.081Z,99.99
2023-03-28T00:46:34.112Z,99.99
2023-03-28T00:47:34.100Z,99.99
2023-03-28T00:48:34.071Z,99.99
2023-03-28T00:49:34.058Z,99.99
2023-03-28T00:50:34.056Z,99.99
2023-03-28T00:51:34.050Z,99.99
2023-03-28T00:52:34.043Z,99.99
2023-03-28T00:53:34.039Z,99.99
2023-03-28T00:54:34.041Z,99.99
2023-03-28T00:55:34.031Z,99.99
2023-03-28T00:56:34.063Z,99.99
2023-03-28T00:57:34.022Z,99.99
2023-03-28T00:58:34.017Z,99.99
2023-03-28T00:59:34.006Z,99.99
2023-03-28T01:00:34.010Z,99.99
2023-03-28T01:01:34.060Z,99.99
2023-03-28T01:02:34.070Z,99.99
2023-03-28T01:03:34.206Z,99.99
2023-03-28T01:04:33.981Z,99.99
2023-03-28T01:05:33.978Z,99.99
2023-03-28T01:06:33.990Z,99.99
2023-03-28T01:07:33.971Z,99.99
2023-03-28T01:08:33.979Z,99.99
2023-03-28T01:09:33.953Z,99.99
2023-03-28T01:10:33.946Z,99.99
2023-03-28T01:11:33.938Z,99.99
2023-03-28T01:12:33.946Z,99.99
2023-03-28T01:13:33.958Z,99.99
2023-03-28T01:14:33.930Z,99.99
2023-03-28T01:15:33.989Z,99.99
2023-03-28T01:16:33.948Z,99.99
2023-03-28T01:17:33.935Z,99.99
2023-03-28T01:18:33.932Z,99.99
2023-03-28T01:19:33.905Z,99.99
2023-03-28T01:20:33.894Z,99.99
2023-03-28T01:21:33.884Z,99.99
2023-03-28T01:22:33.883Z,99.99
2023-03-28T01:23:33.873Z,99.99
2023-03-28T01:24:33.876Z,99.99
2023-03-28T01:25:33.867Z,99.99
2023-03-28T01:26:33.868Z,99.99
2023-03-28T01:27:33.861Z,99.99
2023-03-28T01:28:33.855Z,99.99
2023-03-28T01:29:33.849Z,99.99
2023-03-28T01:30:33.839Z,99.99
2023-03-28T01:31:33.930Z,99.99
2023-03-28T01:32:33.845Z,99.99
2023-03-28T01:33:33.835Z,99.99
2023-03-28T01:34:33.838Z,99.99
2023-03-28T01:35:33.860Z,99.99
2023-03-28T01:36:35.437Z,99.99
2023-03-28T01:37:33.806Z,99.99
2023-03-28T01:38:33.806Z,99.99
2023-03-28T01:39:33.793Z,99.99
2023-03-28T01:40:33.787Z,99.99
2023-03-28T01:41:33.781Z,99.99
2023-03-28T01:42:33.789Z,99.99
2023-03-28T01:43:33.768Z,99.99
2023-03-28T01:44:33.771Z,99.99
2023-03-28T01:45:33.766Z,99.99
2023-03-28T01:46:33.759Z,99.99
2023-03-28T01:47:33.780Z,99.99
2023-03-28T01:48:33.751Z,99.99
2023-03-28T01:49:33.741Z,99.99
2023-03-28T01:50:33.753Z,99.99
2023-03-28T01:51:33.728Z,99.99
2023-03-28T01:52:33.725Z,99.99
2023-03-28T01:53:34.044Z,99.99
2023-03-28T01:54:33.710Z,99.99
2023-03-28T01:55:33.705Z,99.99
2023-03-28T01:56:33.736Z,99.99
2023-03-28T01:57:33.730Z,99.99
2023-03-28T01:58:33.700Z,99.99
2023-03-28T01:59:33.682Z,99.99
2023-03-28T02:00:33.682Z,99.99
2023-03-28T02:01:33.703Z,99.99
2023-03-28T02:02:33.748Z,99.99
2023-03-28T02:03:33.703Z,99.99
2023-03-28T02:04:33.709Z,99.99
2023-03-28T02:05:33.660Z,99.99
2023-03-28T02:06:33.681Z,99.99
2023-03-28T02:07:33.643Z,99.99
2023-03-28T02:08:33.639Z,99.99
2023-03-28T02:09:33.637Z,99.99
2023-03-28T02:10:33.628Z,99.99
2023-03-28T02:11:33.628Z,99.99
2023-03-28T02:12:33.618Z,99.99
2023-03-28T02:13:33.613Z,99.99
2023-03-28T02:14:33.620Z,99.99
2023-03-28T02:15:33.603Z,99.99
2023-03-28T02:16:33.628Z,99.99
2023-03-28T02:17:33.637Z,99.99
2023-03-28T02:18:33.597Z,99.99
2023-03-28T02:19:33.586Z,99.99
2023-03-28T02:20:33.581Z,99.99
2023-03-28T02:21:33.572Z,99.99
2023-03-28T02:22:33.597Z,99.99
2023-03-28T02:23:33.561Z,99.99
2023-03-28T02:24:33.573Z,99.99
2023-03-28T02:25:33.566Z,99.99
2023-03-28T02:26:33.582Z,99.99
2023-03-28T02:27:33.560Z,99.99
2023-03-28T02:28:33.554Z,99.99
2023-03-28T02:29:33.532Z,99.99
2023-03-28T02:30:33.531Z,99.99
2023-03-28T02:31:33.569Z,99.99
2023-03-28T02:32:33.558Z,99.99
2023-03-28T02:33:33.511Z,99.99
2023-03-28T02:34:33.510Z,99.99
2023-03-28T02:35:33.552Z,99.99
2023-03-28T02:36:33.498Z,99.99
2023-03-28T02:37:33.502Z,99.99
2023-03-28T02:38:33.513Z,99.99
2023-03-28T02:39:33.484Z,99.99
2023-03-28T02:40:33.476Z,99.99
2023-03-28T02:41:33.482Z,99.99
2023-03-28T02:42:33.468Z,99.99
2023-03-28T02:43:33.458Z,99.99
2023-03-28T02:44:33.455Z,99.99
2023-03-28T02:45:34.464Z,99.99
2023-03-28T02:50:47.588Z,99.99
2023-03-28T02:51:47.584Z,99.99
2023-03-28T02:52:47.578Z,99.99
2023-03-28T02:53:47.593Z,99.99
2023-03-28T02:54:47.568Z,99.99
2023-03-28T02:55:47.559Z,99.99
2023-03-28T02:56:47.591Z,99.99
2023-03-28T02:57:47.547Z,99.99
2023-03-28T02:58:47.545Z,99.99
2023-03-28T02:59:47.536Z,99.99
2023-03-28T03:00:47.532Z,99.99
2023-03-28T03:01:47.542Z,99.99
2023-03-28T03:02:47.582Z,99.99
2023-03-28T03:03:47.554Z,99.99
2023-03-28T03:04:47.514Z,99.99
2023-03-28T03:05:47.502Z,99.99
2023-03-28T03:06:47.504Z,99.99
2023-03-28T03:07:47.497Z,99.99
2023-03-28T03:08:47.489Z,99.99
2023-03-28T03:09:47.510Z,99.99
2023-03-28T03:10:47.485Z,99.99
2023-03-28T03:11:47.472Z,99.99
2023-03-28T03:12:47.468Z,99.99
2023-03-28T03:13:47.465Z,99.99
2023-03-28T03:14:47.460Z,99.99
2023-03-28T03:15:47.458Z,99.99
2023-03-28T03:16:47.451Z,99.99
2023-03-28T03:17:47.455Z,99.99
2023-03-28T03:18:47.437Z,99.99
2023-03-28T03:19:47.433Z,99.99
2023-03-28T03:20:47.429Z,99.99
2023-03-28T03:21:47.425Z,99.99
2023-03-28T03:22:47.420Z,99.99
2023-03-28T03:23:47.405Z,99.99
2023-03-28T03:24:47.401Z,99.99
2023-03-28T03:25:47.418Z,99.99
2023-03-28T03:26:47.395Z,99.99
2023-03-28T03:27:47.392Z,99.99
2023-03-28T03:28:47.388Z,99.99
2023-03-28T03:29:47.377Z,99.99
2023-03-28T03:30:47.373Z,99.99
2023-03-28T03:31:47.427Z,99.99
2023-03-28T03:32:47.380Z,99.99
2023-03-28T03:33:47.365Z,99.99
2023-03-28T03:34:47.343Z,99.99
2023-03-28T03:35:47.399Z,99.99
2023-03-28T03:36:47.337Z,99.99
2023-03-28T03:37:47.329Z,99.99
2023-03-28T03:38:47.329Z,99.99
2023-03-28T03:39:47.316Z,99.99
2023-03-28T03:40:47.316Z,99.99
2023-03-28T03:41:47.324Z,99.99
2023-03-28T03:42:47.306Z,99.99
2023-03-28T03:43:47.439Z,99.99
2023-03-28T03:44:47.296Z,99.99
2023-03-28T03:45:47.307Z,99.99
2023-03-28T03:46:47.307Z,99.99
2023-03-28T03:47:47.311Z,99.99
2023-03-28T03:48:49.985Z,99.99
2023-03-28T03:49:47.263Z,99.99
2023-03-28T03:50:47.272Z,99.99
2023-03-28T03:51:47.260Z,99.99
2023-03-28T03:52:47.258Z,99.99
2023-03-28T03:53:47.238Z,99.99
2023-03-28T03:54:47.242Z,99.99
2023-03-28T03:55:47.228Z,99.99
2023-03-28T03:56:47.240Z,99.99
2023-03-28T03:57:47.250Z,99.99
2023-03-28T03:58:47.218Z,99.99
2023-03-28T03:59:47.217Z,99.99
2023-03-28T04:00:47.262Z,99.99
2023-03-28T04:01:47.216Z,99.99
2023-03-28T04:02:47.274Z,99.99
2023-03-28T04:03:47.246Z,99.99
2023-03-28T04:04:47.185Z,99.99
2023-03-28T04:05:47.176Z,99.99
2023-03-28T04:06:47.175Z,99.99
2023-03-28T04:07:47.168Z,99.99
2023-03-28T04:08:47.160Z,99.99
2023-03-28T04:09:47.166Z,99.99
2023-03-28T04:10:47.451Z,99.99
2023-03-28T04:11:47.146Z,99.99
2023-03-28T04:12:47.145Z,99.99
2023-03-28T04:13:47.153Z,99.99
2023-03-28T04:14:47.162Z,99.99
2023-03-28T04:15:47.198Z,99.99
2023-03-28T04:16:47.121Z,99.99
2023-03-28T04:17:47.127Z,99.99
2023-03-28T04:18:47.119Z,99.99
2023-03-28T04:19:47.105Z,99.99
2023-03-28T04:20:47.112Z,99.99
2023-03-28T04:21:47.086Z,99.99
2023-03-28T04:22:47.087Z,99.99
2023-03-28T04:23:47.077Z,99.99
2023-03-28T04:24:47.084Z,99.99
2023-03-28T04:25:47.059Z,99.99
2023-03-28T04:26:47.064Z,99.99
2023-03-28T04:27:47.180Z,99.99
2023-03-28T04:28:47.060Z,99.99
2023-03-28T04:29:47.067Z,99.99
2023-03-28T04:30:47.048Z,99.99
2023-03-28T04:31:47.078Z,99.99
2023-03-28T04:32:47.084Z,99.99
2023-03-28T04:33:47.028Z,99.99
2023-03-28T04:34:47.039Z,99.99
2023-03-28T04:35:47.036Z,99.99
2023-03-28T04:36:47.016Z,99.99
2023-03-28T04:37:47.008Z,99.99
2023-03-28T04:38:47.003Z,99.99
2023-03-28T04:39:46.996Z,99.99
2023-03-28T04:40:47.000Z,99.99
2023-03-28T04:41:47.046Z,99.99
2023-03-28T04:42:46.979Z,99.99
2023-03-28T04:43:46.977Z,99.99
2023-03-28T04:44:46.975Z,99.99
2023-03-28T04:45:47.007Z,99.99
2023-03-28T04:46:46.967Z,99.99
2023-03-28T04:47:46.994Z,99.99
2023-03-28T04:48:46.962Z,99.99
2023-03-28T04:49:46.947Z,99.99
2023-03-28T04:50:46.944Z,99.99
2023-03-28T04:51:46.933Z,99.99
2023-03-28T04:52:46.935Z,99.99
2023-03-28T04:53:46.926Z,99.99
2023-03-28T04:54:46.921Z,99.99
2023-03-28T04:55:46.910Z,99.99
2023-03-28T04:56:46.957Z,99.99
2023-03-28T04:57:46.901Z,99.99
2023-03-28T04:58:46.901Z,99.99
2023-03-28T04:59:46.902Z,99.99
2023-03-28T05:00:46.888Z,99.99
2023-03-28T05:01:46.903Z,99.99
2023-03-28T05:02:46.946Z,99.99
2023-03-28T05:03:46.890Z,99.99
2023-03-28T05:04:46.866Z,99.99
2023-03-28T05:05:46.856Z,99.99
2023-03-28T05:06:46.853Z,99.99
2023-03-28T05:07:46.843Z,99.99
2023-03-28T05:08:46.849Z,99.99
2023-03-28T05:09:46.834Z,99.99
2023-03-28T05:10:46.830Z,99.99
2023-03-28T05:11:46.821Z,99.99
2023-03-28T05:12:46.821Z,99.99
2023-03-28T05:13:46.813Z,99.99
2023-03-28T05:14:46.814Z,99.99
2023-03-28T05:15:46.802Z,99.99
2023-03-28T05:16:46.939Z,99.99
2023-03-28T05:17:46.830Z,99.99
2023-03-28T05:18:46.787Z,99.99
2023-03-28T05:19:46.776Z,99.99
2023-03-28T05:20:46.795Z,99.99
2023-03-28T05:21:46.768Z,99.99
2023-03-28T05:22:46.770Z,99.99
2023-03-28T05:23:52.341Z,99.99
2023-03-28T05:24:46.754Z,99.99
2023-03-28T05:25:46.751Z,99.99
2023-03-28T05:26:46.743Z,99.99
2023-03-28T05:27:46.733Z,99.99
2023-03-28T05:28:46.749Z,99.99
2023-03-28T05:29:46.748Z,99.99
2023-03-28T05:30:46.728Z,99.99
2023-03-28T05:31:46.777Z,99.99
2023-03-28T05:32:46.739Z,99.99
2023-03-28T05:33:46.758Z,99.99
2023-03-28T05:34:46.711Z,99.99
2023-03-28T05:35:46.705Z,99.99
2023-03-28T05:36:46.693Z,99.99
2023-03-28T05:37:47.251Z,99.99
2023-03-28T05:38:46.692Z,99.99
2023-03-28T05:39:46.674Z,99.99
2023-03-28T05:40:46.671Z,99.99
2023-03-28T05:41:46.682Z,99.99
2023-03-28T05:42:46.685Z,99.99
2023-03-28T05:43:46.654Z,99.99
2023-03-28T05:44:46.663Z,99.99
2023-03-28T05:45:46.693Z,99.99
2023-03-28T05:46:46.641Z,99.99
2023-03-28T05:47:46.662Z,99.99
2023-03-28T05:48:49.272Z,99.99
2023-03-28T05:49:46.646Z,99.99
2023-03-28T05:50:46.621Z,99.99
2023-03-28T05:51:46.621Z,99.99
2023-03-28T05:52:46.611Z,99.99
2023-03-28T05:53:46.603Z,99.99
2023-03-28T05:54:50.562Z,99.99
2023-03-28T05:55:46.594Z,99.99
2023-03-28T05:56:46.608Z,99.99
2023-03-28T05:57:46.585Z,99.99
2023-03-28T05:58:46.578Z,99.99
2023-03-28T05:59:46.575Z,99.99
2023-03-28T06:00:46.571Z,99.99
2023-03-28T06:01:46.569Z,99.99
2023-03-28T06:02:46.571Z,99.99
2023-03-28T06:03:46.582Z,99.99
2023-03-28T06:04:46.582Z,99.99
2023-03-28T06:05:46.570Z,99.99
2023-03-28T06:06:46.541Z,99.99
2023-03-28T06:07:46.538Z,99.99
2023-03-28T06:08:46.528Z,99.99
2023-03-28T06:09:46.523Z,99.99
2023-03-28T06:10:46.521Z,99.99
2023-03-28T06:11:46.519Z,99.99
2023-03-28T06:12:46.507Z,99.99
2023-03-28T06:13:46.510Z,99.99
2023-03-28T06:14:47.441Z,99.99
2023-03-28T06:15:46.490Z,99.99
2023-03-28T06:16:46.565Z,99.99
2023-03-28T06:17:46.529Z,99.99
2023-03-28T06:18:46.478Z,99.99
2023-03-28T06:19:46.521Z,99.99
2023-03-28T06:20:46.467Z,99.99
2023-03-28T06:21:46.486Z,99.99
2023-03-28T06:22:46.455Z,99.99
2023-03-28T06:23:46.444Z,99.99
2023-03-28T06:24:46.452Z,99.99
2023-03-28T06:25:46.440Z,99.99
2023-03-28T06:26:46.441Z,99.99
2023-03-28T06:27:46.428Z,99.99
2023-03-28T06:28:46.434Z,99.99
2023-03-28T06:29:46.418Z,99.99
2023-03-28T06:30:46.419Z,99.99
2023-03-28T06:31:46.462Z,99.99
2023-03-28T06:32:46.484Z,99.99
2023-03-28T06:33:46.400Z,99.99
2023-03-28T06:34:46.409Z,99.99
2023-03-28T06:35:46.405Z,99.99
2023-03-28T06:36:46.390Z,99.99
2023-03-28T06:37:46.417Z,99.99
2023-03-28T06:38:46.454Z,99.99
2023-03-28T06:39:46.379Z,99.99
2023-03-28T06:40:46.372Z,99.99
2023-03-28T06:41:46.376Z,99.99
2023-03-28T06:42:46.369Z,99.99
2023-03-28T06:43:46.356Z,99.99
2023-03-28T06:44:46.355Z,99.99
2023-03-28T06:45:46.341Z,99.99
2023-03-28T06:46:46.421Z,99.99
2023-03-28T06:47:46.373Z,99.99
2023-03-28T06:48:46.346Z,99.99
2023-03-28T06:49:46.326Z,99.99
2023-03-28T06:50:46.329Z,99.99
2023-03-28T06:51:46.314Z,99.99
2023-03-28T06:52:46.311Z,99.99
2023-03-28T06:53:46.341Z,99.99
2023-03-28T06:54:48.442Z,99.99
2023-03-28T06:55:46.300Z,99.99
2023-03-28T06:56:46.348Z,99.99
2023-03-28T06:57:46.289Z,99.99
2023-03-28T06:58:46.292Z,99.99
2023-03-28T06:59:46.277Z,99.99
2023-03-28T07:00:46.278Z,99.99
2023-03-28T07:01:46.321Z,99.99
2023-03-28T07:02:46.355Z,98.84
2023-03-28T07:03:46.583Z,98.07
2023-03-28T07:04:46.263Z,97.00
2023-03-28T07:05:46.266Z,96.09
2023-03-28T07:06:46.270Z,94.46
2023-03-28T07:07:46.249Z,92.83
2023-03-28T07:08:46.266Z,91.22
2023-03-28T07:09:46.270Z,90.37
2023-03-28T07:10:46.241Z,88.55
2023-03-28T07:11:46.266Z,86.53
2023-03-28T07:12:46.230Z,86.61
2023-03-28T07:13:46.233Z,85.21
2023-03-28T07:14:46.218Z,83.56
2023-03-28T07:15:46.223Z,82.10
2023-03-28T07:16:46.258Z,81.41
2023-03-28T07:17:46.226Z,79.85
2023-03-28T07:18:46.209Z,79.12
2023-03-28T07:19:46.212Z,80.03
2023-03-28T07:20:51.975Z,80.30
2023-03-28T07:21:46.206Z,79.75
2023-03-28T07:22:46.199Z,78.36
2023-03-28T07:23:46.204Z,78.36
2023-03-28T07:24:46.194Z,77.65
2023-03-28T07:25:46.212Z,78.16
2023-03-28T07:26:46.194Z,77.68
2023-03-28T07:27:46.201Z,77.00
2023-03-28T07:28:46.175Z,74.70
2023-03-28T07:29:46.198Z,73.86
2023-03-28T07:30:46.176Z,73.42
2023-03-28T07:31:46.220Z,71.33
2023-03-28T07:33:46.207Z,70.66
2023-03-28T07:34:46.206Z,71.00
2023-03-28T07:35:46.201Z,71.16
2023-03-28T07:36:46.162Z,70.70
2023-03-28T07:37:46.168Z,69.62
2023-03-28T07:38:48.584Z,67.98
2023-03-28T07:39:46.168Z,67.08
2023-03-28T07:40:46.152Z,66.44
2023-03-28T07:41:46.190Z,66.41
2023-03-28T07:42:46.155Z,67.18
2023-03-28T07:43:46.152Z,64.95
2023-03-28T07:44:46.149Z,64.72
2023-03-28T07:45:46.183Z,64.48
2023-03-28T07:46:46.144Z,64.18
2023-03-28T07:47:46.151Z,63.95
2023-03-28T07:48:46.144Z,63.62
2023-03-28T07:49:46.148Z,62.92
2023-03-28T07:50:46.145Z,63.42
2023-03-28T07:51:46.147Z,61.79
2023-03-28T07:52:46.139Z,61.62
2023-03-28T07:53:46.182Z,61.45
2023-03-28T07:54:46.139Z,63.32
2023-03-28T07:55:54.262Z,61.82
2023-03-28T07:56:46.149Z,61.69
2023-03-28T07:57:46.162Z,60.92
2023-03-28T07:58:46.155Z,61.78
2023-03-28T07:59:46.144Z,63.71
2023-03-28T08:00:46.138Z,61.85
2023-03-28T08:01:46.139Z,61.54
2023-03-28T08:02:46.234Z,62.41
2023-03-28T08:03:46.251Z,59.78
2023-03-28T08:04:46.135Z,61.95
2023-03-28T08:05:46.183Z,60.29
2023-03-28T08:06:46.137Z,59.74
2023-03-28T08:07:46.216Z,61.10
2023-03-28T08:08:46.136Z,59.23
2023-03-28T08:09:46.139Z,59.32
2023-03-28T08:10:46.146Z,59.97
2023-03-28T08:11:46.147Z,59.56
2023-03-28T08:12:46.158Z,59.64
2023-03-28T08:13:46.187Z,59.34
2023-03-28T08:14:46.140Z,58.14
2023-03-28T08:15:46.200Z,59.83
2023-03-28T08:16:46.139Z,59.53
2023-03-28T08:17:46.156Z,58.64
2023-03-28T08:18:48.715Z,57.46
2023-03-28T08:19:46.144Z,58.84
2023-03-28T08:20:46.143Z,57.07
2023-03-28T08:21:46.147Z,56.96
2023-03-28T08:22:46.144Z,57.37
2023-03-28T08:23:46.150Z,57.26
2023-03-28T08:24:46.147Z,57.07
2023-03-28T08:25:46.164Z,57.01
2023-03-28T08:26:48.102Z,57.09
2023-03-28T08:27:46.154Z,56.09
2023-03-28T08:28:46.154Z,55.41
2023-03-28T08:29:46.184Z,57.01
2023-03-28T08:30:46.166Z,56.68
2023-03-28T08:31:46.307Z,56.29
2023-03-28T08:32:48.735Z,56.96
2023-03-28T08:33:46.185Z,57.15
2023-03-28T08:34:46.163Z,55.46
2023-03-28T08:35:46.232Z,55.73
2023-03-28T08:36:46.175Z,55.41
2023-03-28T08:37:46.172Z,54.51
2023-03-28T08:38:46.186Z,55.93
2023-03-28T08:39:46.181Z,54.83
2023-03-28T08:40:46.179Z,53.78
2023-03-28T08:41:46.198Z,53.64
2023-03-28T08:42:46.185Z,54.88
2023-03-28T08:43:46.196Z,57.37
2023-03-28T08:44:47.992Z,59.32
2023-03-28T08:45:46.225Z,58.42
2023-03-28T08:46:46.226Z,60.27
2023-03-28T08:47:46.250Z,59.98
2023-03-28T08:48:46.205Z,59.89
2023-03-28T08:49:46.216Z,57.35
2023-03-28T08:50:46.227Z,57.07
2023-03-28T08:51:46.223Z,56.77
2023-03-28T08:52:46.231Z,56.31
2023-03-28T08:53:46.233Z,55.56
2023-03-28T08:54:46.236Z,53.74
2023-03-28T08:55:46.242Z,55.08
2023-03-28T08:56:46.259Z,53.69
2023-03-28T08:57:46.256Z,53.04
2023-03-28T08:58:46.249Z,54.39
2023-03-28T08:59:46.254Z,55.50
2023-03-28T09:00:46.255Z,57.12
2023-03-28T09:01:46.366Z,57.34
2023-03-28T09:02:46.397Z,55.81
2023-03-28T09:03:46.381Z,54.32
2023-03-28T09:04:46.277Z,55.52
2023-03-28T09:05:46.301Z,57.17
2023-03-28T09:06:46.295Z,57.32
2023-03-28T09:07:46.291Z,55.62
2023-03-28T09:08:46.292Z,56.26
2023-03-28T09:09:46.316Z,55.61
2023-03-28T09:10:46.298Z,57.50
2023-03-28T09:11:46.309Z,59.39
2023-03-28T09:12:46.322Z,59.72
2023-03-28T09:13:46.317Z,60.00
2023-03-28T09:14:46.325Z,60.87
2023-03-28T09:15:46.325Z,61.96
2023-03-28T09:16:46.384Z,62.21
2023-03-28T09:17:46.355Z,64.47
2023-03-28T09:18:46.327Z,64.14
2023-03-28T09:19:48.789Z,65.36
2023-03-28T09:20:46.343Z,64.96
2023-03-28T09:21:46.343Z,63.07
2023-03-28T09:22:46.344Z,63.93
2023-03-28T09:23:46.348Z,64.81
2023-03-28T09:24:46.342Z,66.46
2023-03-28T09:25:46.364Z,67.54
2023-03-28T09:26:46.349Z,68.21
2023-03-28T09:27:46.363Z,69.26
2023-03-28T09:28:46.352Z,69.53
2023-03-28T09:29:46.369Z,70.65
2023-03-28T09:30:46.359Z,69.29
2023-03-28T09:31:46.390Z,71.46
2023-03-28T09:32:46.444Z,70.78
2023-03-28T09:33:46.388Z,72.62
2023-03-28T09:34:46.381Z,73.43
2023-03-28T09:35:46.419Z,72.34
2023-03-28T09:36:49.879Z,73.23
2023-03-28T09:37:46.369Z,73.60
2023-03-28T09:38:46.372Z,73.33
2023-03-28T09:39:46.367Z,74.56
2023-03-28T09:40:46.366Z,74.97
2023-03-28T09:41:46.367Z,74.35
2023-03-28T09:42:46.372Z,73.84
2023-03-28T09:43:46.377Z,73.98
2023-03-28T09:44:54.135Z,75.00
2023-03-28T09:45:46.414Z,74.66
2023-03-28T09:46:46.380Z,74.87
2023-03-28T09:47:46.538Z,73.94
2023-03-28T09:48:46.469Z,75.82
2023-03-28T09:49:46.394Z,74.49
2023-03-28T09:50:46.370Z,74.96
2023-03-28T09:51:46.373Z,74.55
2023-03-28T09:52:46.371Z,73.84
2023-03-28T09:53:46.376Z,74.45
2023-03-28T09:54:46.368Z,75.07
2023-03-28T09:55:57.975Z,74.93
2023-03-28T09:56:46.403Z,76.16
2023-03-28T09:57:46.365Z,76.19
2023-03-28T09:58:46.371Z,76.19
2023-03-28T09:59:46.379Z,77.42
2023-03-28T10:00:46.368Z,76.74
2023-03-28T10:01:46.431Z,78.88
2023-03-28T10:02:46.421Z,78.85
2023-03-28T10:03:46.365Z,77.62
2023-03-28T10:04:46.436Z,76.19
2023-03-28T10:05:46.399Z,76.60
2023-03-28T10:06:46.366Z,75.99
2023-03-28T10:07:46.368Z,74.87
2023-03-28T10:08:46.362Z,77.89
2023-03-28T10:09:46.363Z,75.04
2023-03-28T10:10:46.365Z,74.83
2023-03-28T10:11:46.369Z,74.49
2023-03-28T10:12:46.366Z,74.38
2023-03-28T10:13:46.365Z,74.15
2023-03-28T10:14:46.367Z,75.44
2023-03-28T10:15:46.435Z,72.96
2023-03-28T10:16:46.363Z,72.52
2023-03-28T10:17:46.398Z,72.45
2023-03-28T10:18:46.357Z,72.01
2023-03-28T10:19:46.363Z,71.26
2023-03-28T10:20:46.365Z,70.28
2023-03-28T10:21:46.379Z,71.40
2023-03-28T10:22:46.356Z,71.09
2023-03-28T10:23:46.352Z,72.31
2023-03-28T10:24:46.352Z,72.38
2023-03-28T10:25:46.357Z,73.97
2023-03-28T10:26:46.350Z,73.46
2023-03-28T10:27:46.358Z,72.41
2023-03-28T10:28:46.366Z,71.60
2023-03-28T10:29:46.352Z,71.30
2023-03-28T10:30:46.375Z,70.68
2023-03-28T10:31:46.455Z,69.98
2023-03-28T10:32:46.413Z,70.65
2023-03-28T10:33:46.355Z,68.32
2023-03-28T10:34:46.356Z,68.62
2023-03-28T10:35:46.387Z,68.22
2023-03-28T10:36:46.346Z,68.05
2023-03-28T10:37:46.378Z,68.55
2023-03-28T10:38:46.346Z,68.69
2023-03-28T10:39:46.349Z,68.35
2023-03-28T10:40:46.381Z,67.97
2023-03-28T10:41:46.346Z,68.31
2023-03-28T10:42:46.354Z,68.44
2023-03-28T10:43:46.346Z,69.02
2023-03-28T10:44:46.341Z,70.34
2023-03-28T10:45:46.345Z,70.31
2023-03-28T10:46:46.431Z,70.01
2023-03-28T10:47:46.349Z,70.28
2023-03-28T10:48:46.348Z,69.09
2023-03-28T10:49:46.352Z,69.12
2023-03-28T10:50:46.338Z,69.02
2023-03-28T10:51:46.341Z,69.73
2023-03-28T10:52:46.338Z,71.50
2023-03-28T10:53:46.374Z,72.11
2023-03-28T10:54:46.340Z,71.60
2023-03-28T10:55:46.340Z,72.17
2023-03-28T10:56:46.379Z,71.97
2023-03-28T10:57:46.341Z,72.89
2023-03-28T10:58:46.348Z,71.91
2023-03-28T10:59:46.337Z,71.97
2023-03-28T11:00:46.332Z,72.11
2023-03-28T11:01:46.397Z,72.21
2023-03-28T11:02:46.408Z,70.82
2023-03-28T11:03:46.453Z,71.19
2023-03-28T11:04:46.340Z,72.41
2023-03-28T11:05:55.004Z,72.34
2023-03-28T11:06:46.335Z,72.14
2023-03-28T11:07:46.331Z,71.23
2023-03-28T11:08:46.338Z,71.73
2023-03-28T11:09:46.358Z,71.97
2023-03-28T11:10:46.324Z,71.77
2023-03-28T11:11:46.324Z,71.87
2023-03-28T11:13:46.328Z,73.33
2023-03-28T11:14:46.317Z,71.91
2023-03-28T11:15:46.368Z,72.62
2023-03-28T11:16:46.323Z,72.55
2023-03-28T11:17:46.354Z,72.04
2023-03-28T11:18:46.326Z,72.38
2023-03-28T11:19:46.321Z,73.50
2023-03-28T11:20:46.344Z,73.06
2023-03-28T11:21:46.319Z,73.50
2023-03-28T11:22:58.822Z,73.67
2023-03-28T11:23:46.323Z,72.17
2023-03-28T11:24:46.312Z,73.67
2023-03-28T11:25:46.333Z,74.35
2023-03-28T11:26:46.311Z,74.28
2023-03-28T11:27:46.311Z,74.25
2023-03-28T11:28:46.882Z,73.40
2023-03-28T11:29:46.301Z,71.94
2023-03-28T11:30:46.318Z,71.94
2023-03-28T11:31:46.353Z,70.14
2023-03-28T11:32:46.334Z,70.24
2023-03-28T11:33:46.303Z,71.26
2023-03-28T11:34:46.312Z,71.36
2023-03-28T11:35:46.382Z,71.16
2023-03-28T11:36:46.309Z,71.19
2023-03-28T11:37:46.300Z,71.63
2023-03-28T11:38:46.306Z,71.67
2023-03-28T11:39:46.306Z,71.15
2023-03-28T11:40:46.297Z,72.55
2023-03-28T11:41:46.313Z,74.45
2023-03-28T11:42:46.295Z,72.38
2023-03-28T11:43:46.297Z,72.48
2023-03-28T11:44:46.297Z,71.70
2023-03-28T11:45:52.281Z,70.28
2023-03-28T11:46:46.362Z,69.57
2023-03-28T11:47:46.298Z,69.67
2023-03-28T11:48:46.290Z,68.04
2023-03-28T11:49:46.282Z,68.35
2023-03-28T11:50:46.282Z,69.16
2023-03-28T11:51:46.287Z,70.99
2023-03-28T11:52:46.281Z,71.06
2023-03-28T11:53:46.277Z,71.64
2023-03-28T11:54:46.283Z,69.47
2023-03-28T11:55:46.276Z,68.62
2023-03-28T11:56:46.307Z,67.91
2023-03-28T11:57:46.480Z,68.01
2023-03-28T11:58:46.275Z,66.49
2023-03-28T11:59:46.270Z,67.20
2023-03-28T12:00:46.304Z,67.10
2023-03-28T12:01:46.278Z,67.91
2023-03-28T12:02:46.309Z,67.41
2023-03-28T12:03:46.331Z,67.61
2023-03-28T12:04:46.302Z,66.90
2023-03-28T12:05:46.270Z,67.44
2023-03-28T12:06:55.939Z,66.96
2023-03-28T12:07:46.277Z,67.67
2023-03-28T12:08:46.266Z,68.52
2023-03-28T12:09:46.264Z,68.65
2023-03-28T12:10:46.263Z,69.06
2023-03-28T12:11:46.274Z,69.53
2023-03-28T12:12:46.265Z,69.73
2023-03-28T12:13:49.515Z,70.45
2023-03-28T12:14:46.268Z,69.23
2023-03-28T12:15:46.257Z,69.26
2023-03-28T12:16:46.275Z,70.68
2023-03-28T12:17:46.268Z,70.41
2023-03-28T12:18:46.261Z,70.41
2023-03-28T12:19:46.253Z,69.19
2023-03-28T12:20:46.253Z,70.41
2023-03-28T12:21:46.259Z,70.41
2023-03-28T12:22:46.260Z,70.24
2023-03-28T12:23:46.249Z,69.73
2023-03-28T12:24:46.252Z,70.89
2023-03-28T12:25:46.242Z,71.77
2023-03-28T12:26:46.249Z,70.85
2023-03-28T12:27:46.242Z,72.14
2023-03-28T12:28:46.247Z,72.21
2023-03-28T12:29:46.316Z,72.78
2023-03-28T12:30:46.289Z,71.53
2023-03-28T12:31:46.245Z,72.01
2023-03-28T12:32:46.283Z,68.48
2023-03-28T12:33:46.240Z,68.79
2023-03-28T12:34:46.248Z,68.21
2023-03-28T12:35:46.276Z,67.90
2023-03-28T12:36:46.236Z,69.46
2023-03-28T12:37:46.243Z,68.65
2023-03-28T12:38:46.239Z,69.15
2023-03-28T12:39:46.232Z,69.76
2023-03-28T12:40:46.231Z,70.38
2023-03-28T12:41:46.235Z,69.53
2023-03-28T12:42:46.232Z,68.44
2023-03-28T12:43:46.226Z,68.98
2023-03-28T12:44:46.230Z,68.68
2023-03-28T12:45:46.275Z,69.80
2023-03-28T12:46:46.501Z,70.58
2023-03-28T12:47:46.270Z,70.45
2023-03-28T12:48:46.240Z,71.43
2023-03-28T12:49:46.264Z,71.77
2023-03-28T12:50:46.231Z,70.11
2023-03-28T12:51:46.219Z,69.03
2023-03-28T12:52:46.224Z,67.98
2023-03-28T12:53:46.235Z,68.15
2023-03-28T12:54:46.226Z,68.52
2023-03-28T12:55:46.221Z,67.00
2023-03-28T12:56:46.250Z,66.57
2023-03-28T12:57:46.368Z,68.33
2023-03-28T12:58:46.216Z,67.32